CSAV Rio Aysen — D5DX2 — position and weather

sailwx.info

Track history (hours):
 
Tides and Currents Weather Stations Pressure Air Temp Water Temp Dewpoint Dewpoint Depression Visibility Wind Speed Wind Dir Waves Ship Positions

CSAV Rio Aysen

Last reported at 2018-Feb-15 07:06 UTC. Time now 2018-Feb-20 01:33 UTC.
Position N 28°03' W 016°18'.

Length 183 m; draft 9 m.

Type: Cargo ship. MMSI: 636015991.

Date/timePositionNaut miles runAvg speedWind from/ knotsBaromVisibWave heightAir tempDewpointWater temp
2018-Feb-15 07:06N 28°03' W 016°18'215.6
2018-Feb-15 06:57N 28°05' W 016°16'715.7
2018-Feb-15 06:30N 28°10' W 016°11'815.8
2018-Feb-15 06:01N 28°16' W 016°05'815.7
2018-Feb-15 05:31N 28°22' W 015°59'815.4
2018-Feb-15 05:01N 28°28' W 015°54'815.4
2018-Feb-15 04:29N 28°34' W 015°47'715.3
2018-Feb-15 04:00N 28°40' W 015°42'815.0
2018-Feb-15 03:30N 28°46' W 015°38'714.9
2018-Feb-15 03:01N 28°53' W 015°36'815.2
2018-Feb-15 02:31N 29°01' W 015°34'815.3
2018-Feb-15 02:01N 29°08' W 015°30'815.3
2018-Feb-15 01:30N 29°15' W 015°28'815.4
2018-Feb-15 01:00N 29°23' W 015°25'715.0
2018-Feb-15 00:30N 29°30' W 015°23'715.0
2018-Feb-15 00:00N 29°37' W 015°20'714.7
2018-Feb-14 23:30N 29°44' W 015°18'714.7
2018-Feb-14 23:00N 29°51' W 015°15'814.8
2018-Feb-14 22:29N 29°58' W 015°12'715.0
2018-Feb-14 21:59N 30°05' W 015°10'714.7
2018-Feb-14 21:30N 30°12' W 015°07'814.5
2018-Feb-14 20:58N 30°20' W 015°05'  
2018-Feb-11 04:44N 49°39' W 003°52'312.9
2018-Feb-11 04:30N 49°41' W 003°48'812.7
2018-Feb-11 03:54N 49°45' W 003°38'512.5
2018-Feb-11 03:30N 49°47' W 003°31'612.4
2018-Feb-11 03:00N 49°50' W 003°23'612.4
2018-Feb-11 02:30N 49°53' W 003°14'612.4
2018-Feb-11 02:00N 49°56' W 003°06'612.4
2018-Feb-11 01:30N 49°58' W 002°57'612.7
2018-Feb-11 01:00N 49°59' W 002°47'713.0
2018-Feb-11 00:30N 50°00' W 002°37'2213.7
2018-Feb-10 22:55N 50°08' W 002°05'614.3
2018-Feb-10 22:30N 50°10' W 001°57'714.4
2018-Feb-10 22:00N 50°12' W 001°46'714.3
2018-Feb-10 21:30N 50°14' W 001°35'714.0
2018-Feb-10 21:00N 50°15' W 001°25'713.7
2018-Feb-10 20:31N 50°17' W 001°14'612.9
2018-Feb-10 20:00N 50°19' W 001°05'2112.0
2018-Feb-10 18:13N 50°24' W 000°32'211.4
2018-Feb-10 18:00N 50°25' W 000°28'611.4
2018-Feb-10 17:30N 50°26' W 000°20'611.5
2018-Feb-10 17:00N 50°28' W 000°11'611.5
2018-Feb-10 16:30N 50°29' W 000°02'611.5
2018-Feb-10 16:00N 50°31' E 000°06'611.8
2018-Feb-10 15:30N 50°33' E 000°15'612.4
2018-Feb-10 15:00N 50°34' E 000°25'612.9
2018-Feb-10 14:30N 50°36' E 000°35'713.5
2018-Feb-10 14:00N 50°40' E 000°44'713.9
2018-Feb-10 13:30N 50°44' E 000°52'714.2
2018-Feb-10 13:00N 50°49' E 001°01'714.3
2018-Feb-10 12:30N 50°53' E 001°09'714.4
2018-Feb-10 12:00N 50°58' E 001°17'714.1
2018-Feb-10 11:31N 51°03' E 001°25'713.9
2018-Feb-10 11:00N 51°07' E 001°34'713.6
2018-Feb-10 10:30N 51°12' E 001°42'713.7
2018-Feb-10 10:00N 51°17' E 001°49'713.6
2018-Feb-10 09:30N 51°22' E 001°56'510.9
2018-Feb-10 09:00N 51°24' E 002°05'714.7
2018-Feb-10 08:31N 51°20' E 002°15'713.3
2018-Feb-10 08:00N 51°22' E 002°26'713.7
2018-Feb-10 07:30N 51°23' E 002°37'612.2
2018-Feb-10 06:59N 51°24' E 002°47'612.6
2018-Feb-10 06:30N 51°25' E 002°56'713.9
2018-Feb-10 06:00N 51°24' E 003°07'714.1
2018-Feb-10 05:30N 51°24' E 003°18'714.0
2018-Feb-10 05:00N 51°25' E 003°30'4 8.0
2018-Feb-10 04:30N 51°26' E 003°36'510.1
2018-Feb-10 04:00N 51°24' E 003°43'612.8
2018-Feb-10 03:30N 51°21' E 003°52'713.6
2018-Feb-10 03:00N 51°26' E 003°59'611.4
2018-Feb-10 02:31N 51°22' E 004°06'5 9.4
2018-Feb-10 02:00N 51°22' E 004°13'3 5.0
2018-Feb-10 01:30N 51°21' E 004°17'0 0.0
2018-Feb-10 01:00N 51°21' E 004°17'0 0.0
2018-Feb-10 00:30N 51°21' E 004°17'0 0.0
2018-Feb-10 00:00N 51°21' E 004°17'0 0.0
2018-Feb-09 23:30N 51°21' E 004°17'2 3.7
2018-Feb-09 23:00N 51°19' E 004°19'1 5.9
2018-Feb-09 22:46N 51°18' E 004°20'1 2.4
2018-Feb-09 22:30N 51°17' E 004°20'1 0.0
2018-Feb-08 01:28N 51°16' E 004°22'0 0.0
2018-Feb-08 00:55N 51°16' E 004°22'0 0.0
2018-Feb-08 00:25N 51°16' E 004°22'0 0.0
2018-Feb-07 23:58N 51°16' E 004°22'0 0.0
2018-Feb-07 23:28N 51°16' E 004°22'0 0.0
2018-Feb-07 22:58N 51°16' E 004°22'0 0.0
2018-Feb-07 22:28N 51°16' E 004°22'0 0.0
2018-Feb-07 21:58N 51°16' E 004°22'0 0.0
2018-Feb-07 21:28N 51°16' E 004°22'0 0.0
2018-Feb-07 09:28N 51°16' E 004°22'0 0.0
2018-Feb-07 08:58N 51°16' E 004°22'0 0.0
2018-Feb-07 08:28N 51°16' E 004°22'0 0.0
2018-Feb-07 07:58N 51°16' E 004°22'0 0.0
2018-Feb-07 07:25N 51°16' E 004°22'0 0.0
2018-Feb-07 06:58N 51°16' E 004°22'0 0.0
2018-Feb-07 06:28N 51°16' E 004°22'0 0.0
2018-Feb-07 05:58N 51°16' E 004°22'0 0.0
2018-Feb-07 05:28N 51°16' E 004°22'0 0.0
2018-Feb-07 04:58N 51°16' E 004°22'0 0.0
2018-Feb-07 04:28N 51°16' E 004°22'0 0.0
2018-Feb-07 03:58N 51°16' E 004°22'0 0.0
2018-Feb-07 03:28N 51°16' E 004°22'0 0.0
2018-Feb-07 02:58N 51°16' E 004°22'0 0.0
2018-Feb-07 02:28N 51°16' E 004°22'0 0.0
2018-Feb-07 01:58N 51°16' E 004°22'0 0.0
2018-Feb-07 01:28N 51°16' E 004°22'0 0.0
2018-Feb-07 00:58N 51°16' E 004°22'0 0.0
2018-Feb-07 00:28N 51°16' E 004°22'0 0.0
2018-Feb-06 23:58N 51°16' E 004°22'0 0.0
2018-Feb-06 23:25N 51°16' E 004°22'0 0.0
2018-Feb-06 22:58N 51°16' E 004°22'0 0.0
2018-Feb-06 22:28N 51°16' E 004°22'0 0.0
2018-Feb-06 21:58N 51°16' E 004°22'0 0.0
2018-Feb-06 21:28N 51°16' E 004°22'0 0.0
2018-Feb-06 20:58N 51°16' E 004°22'0 0.0
2018-Feb-06 20:25N 51°16' E 004°22'0 0.0
2018-Feb-06 19:58N 51°16' E 004°22'0 0.0
2018-Feb-06 19:28N 51°16' E 004°22'0 0.0
2018-Feb-06 18:58N 51°16' E 004°22'0 0.0
2018-Feb-06 18:28N 51°16' E 004°22'0 0.0
2018-Feb-06 17:58N 51°16' E 004°22'0 0.0
2018-Feb-06 17:22N 51°16' E 004°22'0 0.0
2018-Feb-06 16:55N 51°16' E 004°22'0 0.0
2018-Feb-06 16:25N 51°16' E 004°22'0 0.0
2018-Feb-06 15:58N 51°16' E 004°22'0 0.0
2018-Feb-06 15:28N 51°16' E 004°22'0 0.0
2018-Feb-06 14:58N 51°16' E 004°22'0 0.0
2018-Feb-06 14:25N 51°16' E 004°22'0 0.0
2018-Feb-06 13:58N 51°16' E 004°22'0 0.0
2018-Feb-06 13:28N 51°16' E 004°22'0 0.0
2018-Feb-06 12:58N 51°16' E 004°22'0 0.0
2018-Feb-06 12:28N 51°16' E 004°22'0 0.0
2018-Feb-06 11:58N 51°16' E 004°22'0 0.0
2018-Feb-06 11:25N 51°16' E 004°22'0 0.0
2018-Feb-06 10:55N 51°16' E 004°22'0 0.0
2018-Feb-06 10:28N 51°16' E 004°22'0 0.0
2018-Feb-06 09:58N 51°16' E 004°22'0 0.0
2018-Feb-06 09:28N 51°16' E 004°22'0 0.0
2018-Feb-06 08:58N 51°16' E 004°22'0 0.0
2018-Feb-06 08:28N 51°16' E 004°22'0 0.0
2018-Feb-06 07:58N 51°16' E 004°22'0 0.0
2018-Feb-06 07:28N 51°16' E 004°22'0 0.0
2018-Feb-06 06:58N 51°16' E 004°22'0 0.0
2018-Feb-06 06:28N 51°16' E 004°22'0 0.0
2018-Feb-06 05:58N 51°16' E 004°22'0 0.0
2018-Feb-06 05:28N 51°16' E 004°22'0 0.0
2018-Feb-06 04:58N 51°16' E 004°22'0 0.0
2018-Feb-06 04:28N 51°16' E 004°22'0 0.0
2018-Feb-06 03:58N 51°16' E 004°22'0 0.0
2018-Feb-06 03:28N 51°16' E 004°22'0 0.0
2018-Feb-06 02:58N 51°16' E 004°22'0 0.0
2018-Feb-06 02:28N 51°16' E 004°22'0 0.0
2018-Feb-06 01:58N 51°16' E 004°22'0 0.0
2018-Feb-06 01:25N 51°16' E 004°22'0 0.0
2018-Feb-06 00:58N 51°16' E 004°22'0 0.0
2018-Feb-06 00:28N 51°16' E 004°22'0 0.0
2018-Feb-05 23:58N 51°16' E 004°22'0 0.0
2018-Feb-05 23:28N 51°16' E 004°22'0 0.0
2018-Feb-05 22:58N 51°16' E 004°22'0 0.0
2018-Feb-05 22:28N 51°16' E 004°22'0 0.0
2018-Feb-05 21:58N 51°16' E 004°22'0 0.0
2018-Feb-05 21:28N 51°16' E 004°22'0 0.0
2018-Feb-05 20:58N 51°16' E 004°22'0 0.0
2018-Feb-05 20:28N 51°16' E 004°22'0 0.0
2018-Feb-05 19:58N 51°16' E 004°22'0 0.0
2018-Feb-05 19:28N 51°16' E 004°22'0 0.0
2018-Feb-05 18:58N 51°16' E 004°22'0 0.0
2018-Feb-05 18:28N 51°16' E 004°22'0 0.0
2018-Feb-05 17:58N 51°16' E 004°22'0 0.0
2018-Feb-05 17:28N 51°16' E 004°22'0 0.0
2018-Feb-05 16:58N 51°16' E 004°22'0 0.0
2018-Feb-05 16:28N 51°16' E 004°22'0 0.0
2018-Feb-05 15:58N 51°16' E 004°22'0 0.0
2018-Feb-05 15:28N 51°16' E 004°22'0 0.0
2018-Feb-05 14:58N 51°16' E 004°22'2 1.8
2018-Feb-05 14:00N 51°18' E 004°20'3 6.9
2018-Feb-05 13:30N 51°21' E 004°18'0 0.1
2018-Feb-05 12:00N 51°21' E 004°17'1 2.1
2018-Feb-05 11:30N 51°21' E 004°16'3 5.6
2018-Feb-05 11:00N 51°23' E 004°13'510.0
2018-Feb-05 10:30N 51°22' E 004°05'11 7.4
2018-Feb-05 09:01N 51°21' E 003°47'4 8.8
2018-Feb-05 08:30N 51°24' E 003°43'4 8.7
2018-Feb-05 08:00N 51°26' E 003°36'3 6.1
2018-Feb-05 07:30N 51°25' E 003°31'  
Track history (hours):
 
Tides and Currents Weather Stations Pressure Air Temp Water Temp Dewpoint Dewpoint Depression Visibility Wind Speed Wind Dir Waves Ship Positions

CSAV Rio Aysen

Last reported at 2018-Feb-15 07:06 UTC. Time now 2018-Feb-20 01:34 UTC.
Position N 28°03' W 016°18'.

Length 183 m; draft 9 m.

Type: Cargo ship. MMSI: 636015991.

Date/timePositionNaut miles runAvg speedWind from/ knotsBaromVisibWave heightAir tempDewpointWater temp
2018-Feb-15 07:06N 28°03' W 016°18'215.6
2018-Feb-15 06:57N 28°05' W 016°16'715.7
2018-Feb-15 06:30N 28°10' W 016°11'815.8
2018-Feb-15 06:01N 28°16' W 016°05'815.7
2018-Feb-15 05:31N 28°22' W 015°59'815.4
2018-Feb-15 05:01N 28°28' W 015°54'815.4
2018-Feb-15 04:29N 28°34' W 015°47'715.3
2018-Feb-15 04:00N 28°40' W 015°42'815.0
2018-Feb-15 03:30N 28°46' W 015°38'714.9
2018-Feb-15 03:01N 28°53' W 015°36'815.2
2018-Feb-15 02:31N 29°01' W 015°34'815.3
2018-Feb-15 02:01N 29°08' W 015°30'815.3
2018-Feb-15 01:30N 29°15' W 015°28'815.4
2018-Feb-15 01:00N 29°23' W 015°25'715.0
2018-Feb-15 00:30N 29°30' W 015°23'715.0
2018-Feb-15 00:00N 29°37' W 015°20'714.7
2018-Feb-14 23:30N 29°44' W 015°18'714.7
2018-Feb-14 23:00N 29°51' W 015°15'814.8
2018-Feb-14 22:29N 29°58' W 015°12'715.0
2018-Feb-14 21:59N 30°05' W 015°10'714.7
2018-Feb-14 21:30N 30°12' W 015°07'814.5
2018-Feb-14 20:58N 30°20' W 015°05'  
2018-Feb-11 04:44N 49°39' W 003°52'312.9
2018-Feb-11 04:30N 49°41' W 003°48'812.7
2018-Feb-11 03:54N 49°45' W 003°38'512.5
2018-Feb-11 03:30N 49°47' W 003°31'612.4
2018-Feb-11 03:00N 49°50' W 003°23'612.4
2018-Feb-11 02:30N 49°53' W 003°14'612.4
2018-Feb-11 02:00N 49°56' W 003°06'612.4
2018-Feb-11 01:30N 49°58' W 002°57'612.7
2018-Feb-11 01:00N 49°59' W 002°47'713.0
2018-Feb-11 00:30N 50°00' W 002°37'2213.7
2018-Feb-10 22:55N 50°08' W 002°05'614.3
2018-Feb-10 22:30N 50°10' W 001°57'714.4
2018-Feb-10 22:00N 50°12' W 001°46'714.3
2018-Feb-10 21:30N 50°14' W 001°35'714.0
2018-Feb-10 21:00N 50°15' W 001°25'713.7
2018-Feb-10 20:31N 50°17' W 001°14'612.9
2018-Feb-10 20:00N 50°19' W 001°05'2112.0
2018-Feb-10 18:13N 50°24' W 000°32'211.4
2018-Feb-10 18:00N 50°25' W 000°28'611.4
2018-Feb-10 17:30N 50°26' W 000°20'611.5
2018-Feb-10 17:00N 50°28' W 000°11'611.5
2018-Feb-10 16:30N 50°29' W 000°02'611.5
2018-Feb-10 16:00N 50°31' E 000°06'611.8
2018-Feb-10 15:30N 50°33' E 000°15'612.4
2018-Feb-10 15:00N 50°34' E 000°25'612.9
2018-Feb-10 14:30N 50°36' E 000°35'713.5
2018-Feb-10 14:00N 50°40' E 000°44'713.9
2018-Feb-10 13:30N 50°44' E 000°52'714.2
2018-Feb-10 13:00N 50°49' E 001°01'714.3
2018-Feb-10 12:30N 50°53' E 001°09'714.4
2018-Feb-10 12:00N 50°58' E 001°17'714.1
2018-Feb-10 11:31N 51°03' E 001°25'713.9
2018-Feb-10 11:00N 51°07' E 001°34'713.6
2018-Feb-10 10:30N 51°12' E 001°42'713.7
2018-Feb-10 10:00N 51°17' E 001°49'713.6
2018-Feb-10 09:30N 51°22' E 001°56'510.9
2018-Feb-10 09:00N 51°24' E 002°05'714.7
2018-Feb-10 08:31N 51°20' E 002°15'713.3
2018-Feb-10 08:00N 51°22' E 002°26'713.7
2018-Feb-10 07:30N 51°23' E 002°37'612.2
2018-Feb-10 06:59N 51°24' E 002°47'612.6
2018-Feb-10 06:30N 51°25' E 002°56'713.9
2018-Feb-10 06:00N 51°24' E 003°07'714.1
2018-Feb-10 05:30N 51°24' E 003°18'714.0
2018-Feb-10 05:00N 51°25' E 003°30'4 8.0
2018-Feb-10 04:30N 51°26' E 003°36'510.1
2018-Feb-10 04:00N 51°24' E 003°43'612.8
2018-Feb-10 03:30N 51°21' E 003°52'713.6
2018-Feb-10 03:00N 51°26' E 003°59'611.4
2018-Feb-10 02:31N 51°22' E 004°06'5 9.4
2018-Feb-10 02:00N 51°22' E 004°13'3 5.0
2018-Feb-10 01:30N 51°21' E 004°17'0 0.0
2018-Feb-10 01:00N 51°21' E 004°17'0 0.0
2018-Feb-10 00:30N 51°21' E 004°17'0 0.0
2018-Feb-10 00:00N 51°21' E 004°17'0 0.0
2018-Feb-09 23:30N 51°21' E 004°17'2 3.7
2018-Feb-09 23:00N 51°19' E 004°19'1 5.9
2018-Feb-09 22:46N 51°18' E 004°20'1 2.4
2018-Feb-09 22:30N 51°17' E 004°20'1 0.0
2018-Feb-08 01:28N 51°16' E 004°22'0 0.0
2018-Feb-08 00:55N 51°16' E 004°22'0 0.0
2018-Feb-08 00:25N 51°16' E 004°22'0 0.0
2018-Feb-07 23:58N 51°16' E 004°22'0 0.0
2018-Feb-07 23:28N 51°16' E 004°22'0 0.0
2018-Feb-07 22:58N 51°16' E 004°22'0 0.0
2018-Feb-07 22:28N 51°16' E 004°22'0 0.0
2018-Feb-07 21:58N 51°16' E 004°22'0 0.0
2018-Feb-07 21:28N 51°16' E 004°22'0 0.0
2018-Feb-07 09:28N 51°16' E 004°22'0 0.0
2018-Feb-07 08:58N 51°16' E 004°22'0 0.0
2018-Feb-07 08:28N 51°16' E 004°22'0 0.0
2018-Feb-07 07:58N 51°16' E 004°22'0 0.0
2018-Feb-07 07:25N 51°16' E 004°22'0 0.0
2018-Feb-07 06:58N 51°16' E 004°22'0 0.0
2018-Feb-07 06:28N 51°16' E 004°22'0 0.0
2018-Feb-07 05:58N 51°16' E 004°22'0 0.0
2018-Feb-07 05:28N 51°16' E 004°22'0 0.0
2018-Feb-07 04:58N 51°16' E 004°22'0 0.0
2018-Feb-07 04:28N 51°16' E 004°22'0 0.0
2018-Feb-07 03:58N 51°16' E 004°22'0 0.0
2018-Feb-07 03:28N 51°16' E 004°22'0 0.0
2018-Feb-07 02:58N 51°16' E 004°22'0 0.0
2018-Feb-07 02:28N 51°16' E 004°22'0 0.0
2018-Feb-07 01:58N 51°16' E 004°22'0 0.0
2018-Feb-07 01:28N 51°16' E 004°22'0 0.0
2018-Feb-07 00:58N 51°16' E 004°22'0 0.0
2018-Feb-07 00:28N 51°16' E 004°22'0 0.0
2018-Feb-06 23:58N 51°16' E 004°22'0 0.0
2018-Feb-06 23:25N 51°16' E 004°22'0 0.0
2018-Feb-06 22:58N 51°16' E 004°22'0 0.0
2018-Feb-06 22:28N 51°16' E 004°22'0 0.0
2018-Feb-06 21:58N 51°16' E 004°22'0 0.0
2018-Feb-06 21:28N 51°16' E 004°22'0 0.0
2018-Feb-06 20:58N 51°16' E 004°22'0 0.0
2018-Feb-06 20:25N 51°16' E 004°22'0 0.0
2018-Feb-06 19:58N 51°16' E 004°22'0 0.0
2018-Feb-06 19:28N 51°16' E 004°22'0 0.0
2018-Feb-06 18:58N 51°16' E 004°22'0 0.0
2018-Feb-06 18:28N 51°16' E 004°22'0 0.0
2018-Feb-06 17:58N 51°16' E 004°22'0 0.0
2018-Feb-06 17:22N 51°16' E 004°22'0 0.0
2018-Feb-06 16:55N 51°16' E 004°22'0 0.0
2018-Feb-06 16:25N 51°16' E 004°22'0 0.0
2018-Feb-06 15:58N 51°16' E 004°22'0 0.0
2018-Feb-06 15:28N 51°16' E 004°22'0 0.0
2018-Feb-06 14:58N 51°16' E 004°22'0 0.0
2018-Feb-06 14:25N 51°16' E 004°22'0 0.0
2018-Feb-06 13:58N 51°16' E 004°22'0 0.0
2018-Feb-06 13:28N 51°16' E 004°22'0 0.0
2018-Feb-06 12:58N 51°16' E 004°22'0 0.0
2018-Feb-06 12:28N 51°16' E 004°22'0 0.0
2018-Feb-06 11:58N 51°16' E 004°22'0 0.0
2018-Feb-06 11:25N 51°16' E 004°22'0 0.0
2018-Feb-06 10:55N 51°16' E 004°22'0 0.0
2018-Feb-06 10:28N 51°16' E 004°22'0 0.0
2018-Feb-06 09:58N 51°16' E 004°22'0 0.0
2018-Feb-06 09:28N 51°16' E 004°22'0 0.0
2018-Feb-06 08:58N 51°16' E 004°22'0 0.0
2018-Feb-06 08:28N 51°16' E 004°22'0 0.0
2018-Feb-06 07:58N 51°16' E 004°22'0 0.0
2018-Feb-06 07:28N 51°16' E 004°22'0 0.0
2018-Feb-06 06:58N 51°16' E 004°22'0 0.0
2018-Feb-06 06:28N 51°16' E 004°22'0 0.0
2018-Feb-06 05:58N 51°16' E 004°22'0 0.0
2018-Feb-06 05:28N 51°16' E 004°22'0 0.0
2018-Feb-06 04:58N 51°16' E 004°22'0 0.0
2018-Feb-06 04:28N 51°16' E 004°22'0 0.0
2018-Feb-06 03:58N 51°16' E 004°22'0 0.0
2018-Feb-06 03:28N 51°16' E 004°22'0 0.0
2018-Feb-06 02:58N 51°16' E 004°22'0 0.0
2018-Feb-06 02:28N 51°16' E 004°22'0 0.0
2018-Feb-06 01:58N 51°16' E 004°22'0 0.0
2018-Feb-06 01:25N 51°16' E 004°22'0 0.0
2018-Feb-06 00:58N 51°16' E 004°22'0 0.0
2018-Feb-06 00:28N 51°16' E 004°22'0 0.0
2018-Feb-05 23:58N 51°16' E 004°22'0 0.0
2018-Feb-05 23:28N 51°16' E 004°22'0 0.0
2018-Feb-05 22:58N 51°16' E 004°22'0 0.0
2018-Feb-05 22:28N 51°16' E 004°22'0 0.0
2018-Feb-05 21:58N 51°16' E 004°22'0 0.0
2018-Feb-05 21:28N 51°16' E 004°22'0 0.0
2018-Feb-05 20:58N 51°16' E 004°22'0 0.0
2018-Feb-05 20:28N 51°16' E 004°22'0 0.0
2018-Feb-05 19:58N 51°16' E 004°22'0 0.0
2018-Feb-05 19:28N 51°16' E 004°22'0 0.0
2018-Feb-05 18:58N 51°16' E 004°22'0 0.0
2018-Feb-05 18:28N 51°16' E 004°22'0 0.0
2018-Feb-05 17:58N 51°16' E 004°22'0 0.0
2018-Feb-05 17:28N 51°16' E 004°22'0 0.0
2018-Feb-05 16:58N 51°16' E 004°22'0 0.0
2018-Feb-05 16:28N 51°16' E 004°22'0 0.0
2018-Feb-05 15:58N 51°16' E 004°22'0 0.0
2018-Feb-05 15:28N 51°16' E 004°22'0 0.0
2018-Feb-05 14:58N 51°16' E 004°22'2 1.8
2018-Feb-05 14:00N 51°18' E 004°20'3 6.9
2018-Feb-05 13:30N 51°21' E 004°18'0 0.1
2018-Feb-05 12:00N 51°21' E 004°17'1 2.1
2018-Feb-05 11:30N 51°21' E 004°16'3 5.6
2018-Feb-05 11:00N 51°23' E 004°13'510.0
2018-Feb-05 10:30N 51°22' E 004°05'11 7.4
2018-Feb-05 09:01N 51°21' E 003°47'4 8.8
2018-Feb-05 08:30N 51°24' E 003°43'4 8.7
2018-Feb-05 08:00N 51°26' E 003°36'3 6.1
2018-Feb-05 07:30N 51°25' E 003°31'  

Dump ship's entire track history